Time;durP1;ratioP1;P1;durP2;ratioP2;P2;SDS_P1;SDS_P2;PMS_P1;PMS_P2;Temp;Humidity;BMP_temperature;BMP_pressure;BME280_temperature;BME280_humidity;BME280_pressure;Samples;Min_cycle;Max_cycle;Signal;HPM_P1;HPM_P2
2021/11/23 00:02:15;;;;;;;16.67;12.33;;;;;;;3.09;85.43;97237.67;1760443;81;21018;-82
2021/11/23 00:04:41;;;;;;;15.05;11.30;;;;;;;3.10;85.24;97239.34;1760391;81;21240;-82
2021/11/23 00:07:06;;;;;;;16.97;12.65;;;;;;;3.07;85.04;97239.53;1760233;81;20944;-82
2021/11/23 00:09:32;;;;;;;16.75;13.00;;;;;;;3.01;84.92;97235.22;1760451;81;20991;-82
2021/11/23 00:11:58;;;;;;;13.98;10.95;;;;;;;2.98;85.29;97240.59;1760387;81;21004;-82
2021/11/23 00:14:24;;;;;;;14.98;11.35;;;;;;;2.96;85.24;97248.05;1759890;81;21061;-82
2021/11/23 00:16:49;;;;;;;14.68;10.10;;;;;;;2.94;85.12;97245.61;1755926;82;20995;-82
2021/11/23 00:19:15;;;;;;;15.15;11.83;;;;;;;2.95;84.98;97248.98;1755576;82;20999;-82
2021/11/23 00:21:41;;;;;;;15.15;11.45;;;;;;;2.94;84.96;97252.02;1755825;82;21353;-83
2021/11/23 00:24:08;;;;;;;15.53;11.35;;;;;;;2.95;85.11;97248.52;1755736;82;21027;-82
2021/11/23 00:26:34;;;;;;;15.93;12.40;;;;;;;2.92;85.01;97241.48;1755569;82;21008;-82
2021/11/23 00:29:00;;;;;;;18.02;13.05;;;;;;;2.87;84.89;97245.69;1755808;82;20999;-82
2021/11/23 00:31:26;;;;;;;20.35;14.05;;;;;;;2.85;84.98;97250.12;1755630;82;20984;-82
2021/11/23 00:33:52;;;;;;;21.17;14.70;;;;;;;2.83;84.64;97253.27;1755662;82;21090;-82
2021/11/23 00:36:18;;;;;;;53.42;26.97;;;;;;;2.82;84.50;97246.50;1762750;79;21342;-82
2021/11/23 00:38:45;;;;;;;39.20;21.07;;;;;;;2.82;84.42;97250.34;1781470;80;20982;-82
2021/11/23 00:41:16;;;;;;;32.98;19.10;;;;;;;2.83;84.50;97252.45;1761453;81;21445;-82
2021/11/23 00:43:42;;;;;;;27.22;17.17;;;;;;;2.84;84.60;97263.06;1761644;81;21075;-83
2021/11/23 00:46:08;;;;;;;25.45;17.17;;;;;;;2.85;84.10;97266.80;1761612;81;21015;-82
2021/11/23 00:48:33;;;;;;;28.07;18.17;;;;;;;2.85;84.42;97257.00;1761532;81;20924;-82
2021/11/23 00:50:59;;;;;;;29.98;19.17;;;;;;;2.82;83.78;97258.52;1761651;81;21035;-82
2021/11/23 00:53:25;;;;;;;26.85;18.57;;;;;;;2.79;83.74;97258.74;1761426;81;20974;-82
2021/11/23 00:55:51;;;;;;;42.03;23.92;;;;;;;2.73;83.74;97248.44;1761595;81;20951;-82
2021/11/23 00:58:17;;;;;;;37.08;21.95;;;;;;;2.73;83.82;97247.16;1761626;81;21002;-82
2021/11/23 01:00:43;;;;;;;33.23;19.55;;;;;;;2.74;83.62;97255.20;1761664;81;21027;-82
2021/11/23 01:03:09;;;;;;;24.57;17.30;;;;;;;2.73;83.19;97263.84;1761618;81;20959;-82
2021/11/23 01:05:35;;;;;;;22.87;16.27;;;;;;;2.73;82.79;97272.81;1761668;81;21358;-83
2021/11/23 01:08:01;;;;;;;22.90;17.30;;;;;;;2.75;82.94;97273.98;1761584;81;20999;-82
2021/11/23 01:10:27;;;;;;;22.98;16.32;;;;;;;2.74;83.28;97277.48;1761559;81;20960;-82
2021/11/23 01:12:53;;;;;;;24.52;16.82;;;;;;;2.70;83.40;97273.87;1761489;81;21353;-82
2021/11/23 01:15:19;;;;;;;24.60;16.20;;;;;;;2.67;83.36;97276.66;1762488;81;21018;-82
2021/11/23 01:17:44;;;;;;;24.95;16.48;;;;;;;2.65;83.34;97271.29;1763983;81;20987;-82
2021/11/23 01:20:11;;;;;;;22.73;15.68;;;;;;;2.63;83.48;97270.13;1763903;81;21393;-83
2021/11/23 01:22:37;;;;;;;19.02;14.58;;;;;;;2.64;83.61;97269.66;1764170;81;21043;-82
2021/11/23 01:25:04;;;;;;;20.70;16.07;;;;;;;2.63;83.63;97270.59;1763976;81;21066;-82
2021/11/23 01:27:29;;;;;;;23.40;14.73;;;;;;;2.62;83.58;97272.80;1763940;81;20998;-82
2021/11/23 01:29:55;;;;;;;23.80;15.43;;;;;;;2.60;83.91;97273.34;1764044;81;20939;-82
2021/11/23 01:32:21;;;;;;;24.82;16.30;;;;;;;2.61;84.33;97271.16;1763973;81;20928;-82
2021/11/23 01:34:48;;;;;;;21.82;13.83;;;;;;;2.61;84.17;97275.02;1763916;81;20991;-82
2021/11/23 01:37:14;;;;;;;20.25;12.33;;;;;;;2.61;84.34;97273.27;1780313;79;20943;-82
2021/11/23 01:39:39;;;;;;;17.98;10.98;;;;;;;2.64;84.35;97276.06;1774850;80;20994;-82
2021/11/23 01:42:06;;;;;;;17.17;12.13;;;;;;;2.65;83.93;97275.14;1732000;83;21029;-82
2021/11/23 01:44:32;;;;;;;16.93;11.75;;;;;;;2.64;84.17;97273.50;1731868;83;21412;-82
2021/11/23 01:46:58;;;;;;;19.00;12.33;;;;;;;2.63;84.23;97275.72;1732131;83;20986;-82
2021/11/23 01:49:23;;;;;;;16.05;11.68;;;;;;;2.60;84.28;97275.48;1705344;83;21104;-82
2021/11/23 01:51:49;;;;;;;16.20;11.20;;;;;;;2.60;84.22;97281.05;1732212;83;21360;-82
2021/11/23 01:54:15;;;;;;;19.17;12.13;;;;;;;2.54;84.08;97272.05;1705076;83;20986;-82
2021/11/23 01:56:41;;;;;;;15.83;10.68;;;;;;;2.52;84.10;97266.22;1732257;83;21054;-82
2021/11/23 01:59:07;;;;;;;13.95;10.63;;;;;;;2.54;84.18;97268.66;1732310;83;20990;-82
2021/11/23 02:01:32;;;;;;;14.00;9.68;;;;;;;2.52;84.20;97256.42;1732058;83;20998;-82
2021/11/23 02:03:59;;;;;;;14.80;9.80;;;;;;;2.50;83.94;97259.09;1732156;83;20990;-82
2021/11/23 02:06:25;;;;;;;13.60;9.85;;;;;;;2.47;83.95;97261.89;1729638;83;21051;-82
2021/11/23 02:08:50;;;;;;;11.97;9.53;;;;;;;2.44;84.04;97257.42;1732136;83;21389;-82
2021/11/23 02:11:16;;;;;;;14.65;9.08;;;;;;;2.41;84.19;97259.27;1729463;83;20943;-82
2021/11/23 02:13:43;;;;;;;14.75;9.10;;;;;;;2.36;83.99;97260.08;1731958;83;21013;-82
2021/11/23 02:16:09;;;;;;;12.58;8.43;;;;;;;2.31;83.79;97262.16;1733704;83;21046;-82
2021/11/23 02:18:36;;;;;;;12.63;9.25;;;;;;;2.27;83.69;97262.00;1735065;83;21002;-82
2021/11/23 02:21:02;;;;;;;11.22;8.38;;;;;;;2.28;83.82;97259.00;1734848;83;21159;-82
2021/11/23 02:23:28;;;;;;;12.50;8.90;;;;;;;2.32;84.12;97254.00;1734950;83;21045;-82
2021/11/23 02:25:53;;;;;;;12.73;8.63;;;;;;;2.28;83.82;97255.97;1734902;83;20927;-82
2021/11/23 02:28:19;;;;;;;13.95;8.80;;;;;;;2.28;84.15;97259.00;1735137;83;20970;-82
2021/11/23 02:30:51;;;;;;;12.75;10.65;;;;;;;2.20;83.81;97256.97;1735071;83;21385;-82
2021/11/23 02:33:20;;;;;;;11.90;8.43;;;;;;;2.16;83.97;97258.11;1735035;83;21372;-82
2021/11/23 02:35:46;;;;;;;12.18;8.25;;;;;;;2.13;84.17;97258.34;1738688;81;20930;-83
2021/11/23 02:38:12;;;;;;;10.98;8.18;;;;;;;2.16;84.35;97256.02;1767830;80;20981;-82
2021/11/23 02:40:38;;;;;;;9.63;7.67;;;;;;;2.22;84.19;97250.44;1760927;81;21036;-82
2021/11/23 02:43:04;;;;;;;11.63;7.95;;;;;;;2.22;84.19;97250.44;1761176;81;20958;-82
2021/11/23 02:45:30;;;;;;;10.50;7.22;;;;;;;2.23;84.07;97252.89;1760573;81;20978;-82
2021/11/23 02:47:58;;;;;;;9.15;7.58;;;;;;;2.21;83.99;97254.75;1761000;81;21364;-82
2021/11/23 02:50:25;;;;;;;9.88;7.35;;;;;;;2.15;83.75;97244.13;1760779;81;21439;-82
2021/11/23 02:52:51;;;;;;;9.45;7.30;;;;;;;2.16;83.98;97250.89;1760852;81;21497;-82
2021/11/23 02:55:18;;;;;;;9.98;6.78;;;;;;;2.15;84.06;97255.20;1760884;81;21436;-82
2021/11/23 02:57:44;;;;;;;8.38;6.50;;;;;;;2.14;83.82;97256.13;1760997;81;21477;-82
2021/11/23 03:00:14;;;;;;;9.53;6.45;;;;;;;2.17;83.38;97263.59;1760961;81;20988;-82
2021/11/23 03:02:39;;;;;;;8.85;5.72;;;;;;;2.14;83.26;97265.10;1760998;81;21001;-82
2021/11/23 03:05:08;;;;;;;8.53;6.12;;;;;;;2.13;83.37;97266.03;1760894;81;21335;-82
2021/11/23 03:07:34;;;;;;;6.97;5.83;;;;;;;2.14;83.62;97265.56;1761135;81;21069;-82
2021/11/23 03:10:00;;;;;;;7.60;5.95;;;;;;;2.12;84.08;97263.11;1760995;81;21415;-82
2021/11/23 03:12:26;;;;;;;7.97;6.28;;;;;;;2.13;84.21;97260.08;1760885;81;21407;-82
2021/11/23 03:14:52;;;;;;;8.78;6.65;;;;;;;2.12;84.08;97269.52;1760907;81;20992;-83
2021/11/23 03:17:18;;;;;;;9.05;6.58;;;;;;;2.14;83.69;97273.26;1757352;81;21081;-82
2021/11/23 03:19:45;;;;;;;8.13;6.87;;;;;;;2.15;83.64;97276.99;1757489;82;21044;-82
2021/11/23 03:22:11;;;;;;;7.60;6.42;;;;;;;2.14;83.30;97278.39;1757254;82;21431;-82
2021/11/23 03:24:37;;;;;;;8.05;6.95;;;;;;;2.12;83.37;97283.62;1757310;82;21069;-82
2021/11/23 03:27:04;;;;;;;10.20;6.62;;;;;;;2.10;83.15;97291.39;1757435;81;20981;-82
2021/11/23 03:29:30;;;;;;;7.25;5.95;;;;;;;2.09;83.24;97288.94;1757486;81;21384;-82
2021/11/23 03:31:56;;;;;;;12.07;8.23;;;;;;;2.06;83.37;97291.72;1757074;82;21017;-82
2021/11/23 03:34:23;;;;;;;11.60;8.65;;;;;;;2.06;82.83;97292.54;1757395;82;21019;-82
2021/11/23 03:36:49;;;;;;;13.85;9.28;;;;;;;2.08;82.67;97294.53;1757273;82;21016;-82
2021/11/23 03:39:15;;;;;;;13.65;8.98;;;;;;;2.10;82.61;97291.86;1757356;81;21426;-82
2021/11/23 03:41:41;;;;;;;14.78;10.45;;;;;;;2.12;82.86;97296.44;1757191;82;21064;-82
2021/11/23 03:44:06;;;;;;;23.67;12.40;;;;;;;2.14;82.29;97295.05;1757413;81;20993;-82
2021/11/23 03:46:32;;;;;;;16.70;10.38;;;;;;;2.11;82.40;97287.08;1757187;82;21331;-82
2021/11/23 03:48:59;;;;;;;14.25;10.80;;;;;;;2.12;82.24;97293.06;1757149;82;20973;-82
2021/11/23 03:51:25;;;;;;;16.35;11.78;;;;;;;2.06;81.80;97293.00;1757192;82;21052;-82
2021/11/23 03:53:51;;;;;;;12.20;9.55;;;;;;;2.02;81.51;97292.41;1757178;82;21016;-82
2021/11/23 03:56:17;;;;;;;14.03;11.00;;;;;;;1.99;81.65;97284.11;1757347;81;20973;-82
2021/11/23 03:58:43;;;;;;;17.23;10.90;;;;;;;1.99;81.65;97284.11;1757477;81;20970;-82
2021/11/23 04:01:09;;;;;;;20.80;12.98;;;;;;;2.01;81.41;97293.80;1757336;81;20970;-82
2021/11/23 04:03:35;;;;;;;20.32;13.22;;;;;;;2.06;82.18;97286.59;1757260;82;21416;-82
2021/11/23 04:06:02;;;;;;;16.67;12.80;;;;;;;2.06;82.18;97286.59;1757356;82;20996;-82
2021/11/23 04:08:28;;;;;;;19.00;12.88;;;;;;;2.04;82.04;97292.30;1757282;81;20996;-82
2021/11/23 04:10:54;;;;;;;17.00;11.90;;;;;;;2.01;81.60;97292.05;1757344;81;21403;-82
2021/11/23 04:13:20;;;;;;;14.18;11.03;;;;;;;2.01;81.47;97289.95;1779107;79;21015;-83
2021/11/23 04:15:47;;;;;;;17.50;11.43;;;;;;;2.00;81.66;97294.72;1794879;80;21024;-82
2021/11/23 04:18:12;;;;;;;18.48;13.08;;;;;;;2.00;81.70;97287.03;1794963;80;20981;-82
2021/11/23 04:20:38;;;;;;;21.45;13.30;;;;;;;1.99;81.87;97290.52;1794964;80;21044;-82
2021/11/23 04:23:05;;;;;;;18.55;12.93;;;;;;;1.96;82.14;97285.15;1794923;80;20956;-82
2021/11/23 04:25:31;;;;;;;17.67;13.43;;;;;;;1.97;82.32;97287.25;1795084;80;21001;-82
2021/11/23 04:27:57;;;;;;;16.73;12.25;;;;;;;1.97;82.28;97292.38;1794974;80;20964;-82
2021/11/23 04:30:23;;;;;;;19.05;13.68;;;;;;;1.96;82.36;97299.71;1795158;80;20922;-82
2021/11/23 04:32:51;;;;;;;17.95;11.68;;;;;;;1.99;82.59;97298.21;1794782;80;21048;-83
2021/11/23 04:35:17;;;;;;;18.10;13.05;;;;;;;2.00;82.50;97299.84;1795033;80;21016;-82
2021/11/23 04:37:42;;;;;;;17.17;12.35;;;;;;;2.00;82.61;97297.28;1795010;80;20965;-82
2021/11/23 04:40:09;;;;;;;14.07;11.00;;;;;;;1.97;82.42;97300.06;1795132;80;20989;-82
2021/11/23 04:42:36;;;;;;;15.35;12.10;;;;;;;1.97;82.82;97314.16;1795003;80;21386;-82
2021/11/23 04:45:04;;;;;;;17.17;12.20;;;;;;;1.98;83.20;97315.34;1795163;80;21406;-82
2021/11/23 04:47:30;;;;;;;16.07;11.57;;;;;;;2.01;82.97;97316.86;1794983;80;20956;-82
2021/11/23 04:49:55;;;;;;;14.60;11.63;;;;;;;2.05;82.99;97324.69;1795218;80;21055;-82
2021/11/23 04:52:21;;;;;;;18.70;12.10;;;;;;;2.09;83.19;97310.27;1795039;80;20976;-82
2021/11/23 04:54:47;;;;;;;14.68;12.40;;;;;;;2.14;83.10;97310.44;1734660;81;21008;-82
2021/11/23 04:57:13;;;;;;;16.10;12.20;;;;;;;2.13;82.99;97303.20;1762309;81;22099;-82
2021/11/23 04:59:38;;;;;;;19.25;13.18;;;;;;;2.06;82.73;97294.28;1762324;81;21081;-83
2021/11/23 05:02:04;;;;;;;19.07;14.93;;;;;;;2.02;82.91;97289.02;1762448;81;21036;-82
2021/11/23 05:04:30;;;;;;;17.87;14.10;;;;;;;1.97;83.00;97290.63;1762532;81;20994;-82
2021/11/23 05:06:56;;;;;;;19.95;13.65;;;;;;;1.98;83.06;97291.45;1762384;81;21037;-82
2021/11/23 05:09:22;;;;;;;15.53;12.60;;;;;;;1.98;82.78;97288.42;1762250;81;21380;-82
2021/11/23 05:11:48;;;;;;;17.10;13.90;;;;;;;2.00;82.91;97302.41;1758335;80;21055;-82
2021/11/23 05:14:15;;;;;;;15.05;11.73;;;;;;;1.96;82.73;97292.84;1763917;81;21006;-82
2021/11/23 05:16:41;;;;;;;16.67;11.97;;;;;;;1.93;82.76;97307.12;1763654;81;21042;-82
2021/11/23 05:19:07;;;;;;;16.40;12.60;;;;;;;1.90;82.96;97312.93;1795306;80;20958;-82
2021/11/23 05:21:34;;;;;;;16.00;11.33;;;;;;;1.86;82.91;97309.77;1795093;80;21087;-82
2021/11/23 05:23:59;;;;;;;15.03;12.63;;;;;;;1.83;82.49;97315.56;1795114;80;21012;-82
2021/11/23 05:26:27;;;;;;;13.32;10.18;;;;;;;1.79;82.51;97314.50;1794953;80;21029;-82
2021/11/23 05:28:55;;;;;;;14.05;10.50;;;;;;;1.77;82.27;97318.88;1795203;80;21463;-82
2021/11/23 05:31:21;;;;;;;16.10;10.68;;;;;;;1.75;82.23;97317.35;1795192;80;20949;-82
2021/11/23 05:33:46;;;;;;;16.57;11.38;;;;;;;1.73;82.17;97311.52;1795249;80;21016;-82
2021/11/23 05:36:12;;;;;;;16.27;9.78;;;;;;;1.72;82.30;97308.59;1795253;80;20972;-82
2021/11/23 05:38:39;;;;;;;13.28;9.53;;;;;;;1.68;82.35;97307.99;1795149;80;20946;-82
2021/11/23 05:41:04;;;;;;;14.07;9.75;;;;;;;1.67;82.41;97311.95;1795084;80;20981;-82
2021/11/23 05:43:32;;;;;;;11.43;8.80;;;;;;;1.66;82.25;97319.27;1795218;80;21387;-82
2021/11/23 05:45:59;;;;;;;11.18;7.87;;;;;;;1.63;81.72;97325.43;1795172;80;21032;-82
2021/11/23 05:48:24;;;;;;;9.75;7.72;;;;;;;1.56;81.37;97324.19;1795318;80;20992;-82
2021/11/23 05:50:50;;;;;;;11.33;9.15;;;;;;;1.50;81.14;97329.73;1795305;80;21442;-82
2021/11/23 05:53:16;;;;;;;10.95;8.80;;;;;;;1.42;80.91;97330.69;1795309;80;21339;-82
2021/11/23 05:55:42;;;;;;;12.65;8.13;;;;;;;1.30;80.49;97332.34;1794953;80;20972;-82
2021/11/23 05:58:08;;;;;;;12.68;7.65;;;;;;;1.22;80.42;97329.91;1795260;80;21387;-82
2021/11/23 06:00:34;;;;;;;13.08;9.48;;;;;;;1.15;80.60;97327.77;1795289;80;20950;-82
2021/11/23 06:03:00;;;;;;;11.57;8.63;;;;;;;1.14;80.69;97336.83;1795255;80;21410;-82
2021/11/23 06:05:26;;;;;;;17.30;10.58;;;;;;;1.14;80.69;97336.83;1795259;80;21958;-82
2021/11/23 06:07:52;;;;;;;14.55;10.28;;;;;;;1.14;80.90;97332.98;1795110;80;21023;-82
2021/11/23 06:10:18;;;;;;;16.02;9.30;;;;;;;1.08;80.33;97335.46;1795210;80;20957;-82
2021/11/23 06:12:43;;;;;;;14.93;11.15;;;;;;;1.00;80.76;97331.31;1795225;80;20953;-82
2021/11/23 06:15:11;;;;;;;11.20;8.53;;;;;;;0.98;80.73;97329.78;1794770;80;21040;-82
2021/11/23 06:17:38;;;;;;;21.02;16.10;;;;;;;0.96;80.71;97332.41;1795121;80;21000;-82
2021/11/23 06:20:05;;;;;;;83.50;42.98;;;;;;;0.92;80.37;97335.27;1794960;80;21012;-82
2021/11/23 06:22:33;;;;;;;24.82;13.93;;;;;;;0.85;79.96;97334.86;1795094;80;20984;-82
2021/11/23 06:24:59;;;;;;;21.57;12.63;;;;;;;0.75;80.23;97334.61;1795225;80;20969;-82
2021/11/23 06:27:24;;;;;;;16.05;10.53;;;;;;;0.71;80.21;97343.41;1795349;80;21012;-82
2021/11/23 06:29:50;;;;;;;21.70;12.98;;;;;;;0.70;80.30;97353.74;1795148;80;21056;-82
2021/11/23 06:32:16;;;;;;;20.35;12.47;;;;;;;0.69;80.25;97360.59;1795155;80;20989;-82
2021/11/23 06:34:43;;;;;;;16.27;12.60;;;;;;;0.66;80.28;97351.84;1794729;80;21056;-82
2021/11/23 06:37:09;;;;;;;13.68;10.65;;;;;;;0.63;80.25;97357.13;1795201;80;21382;-82
2021/11/23 06:39:34;;;;;;;16.05;11.50;;;;;;;0.56;80.17;97361.81;1795225;80;21292;-82
2021/11/23 06:42:00;;;;;;;12.55;10.10;;;;;;;0.53;80.18;97373.52;1795256;80;20961;-82
2021/11/23 06:44:26;;;;;;;13.68;11.18;;;;;;;0.53;80.52;97383.75;1795096;80;21069;-82
2021/11/23 06:46:52;;;;;;;15.18;11.93;;;;;;;0.54;80.36;97387.13;1795155;80;21016;-82
2021/11/23 06:49:18;;;;;;;12.28;9.70;;;;;;;0.51;80.22;97389.42;1766538;80;20985;-82
2021/11/23 06:51:43;;;;;;;13.43;10.53;;;;;;;0.51;80.49;97395.81;1794954;80;21418;-82
2021/11/23 06:54:09;;;;;;;18.15;11.57;;;;;;;0.52;80.47;97400.47;1795314;80;21059;-82
2021/11/23 06:56:35;;;;;;;20.30;13.95;;;;;;;0.51;80.34;97407.78;1795107;80;21407;-82
2021/11/23 06:59:01;;;;;;;17.82;12.18;;;;;;;0.53;80.52;97402.93;1795243;80;21327;-83
2021/11/23 07:01:27;;;;;;;14.18;11.85;;;;;;;0.55;80.06;97415.16;1793025;79;20996;-82
2021/11/23 07:03:53;;;;;;;14.00;10.95;;;;;;;0.58;80.52;97417.98;1777422;80;20988;-82
2021/11/23 07:06:18;;;;;;;12.28;10.70;;;;;;;0.60;80.55;97415.69;1795191;80;21045;-82
2021/11/23 07:08:44;;;;;;;13.43;10.03;;;;;;;0.60;80.15;97414.41;1795123;80;21021;-82
2021/11/23 07:11:12;;;;;;;124.75;50.00;;;;;;;0.60;80.03;97415.69;1795209;80;20941;-82
2021/11/23 07:13:38;;;;;;;31.50;17.45;;;;;;;0.63;79.96;97418.51;1795097;80;21332;-83
2021/11/23 07:16:05;;;;;;;17.87;11.85;;;;;;;0.64;79.64;97418.88;1794993;80;21096;-82
2021/11/23 07:18:31;;;;;;;22.25;13.65;;;;;;;0.68;79.78;97420.80;1798276;80;21458;-82
2021/11/23 07:20:56;;;;;;;24.02;16.20;;;;;;;0.69;79.73;97419.43;1798336;80;21110;-82
2021/11/23 07:23:23;;;;;;;17.95;11.97;;;;;;;0.69;79.87;97408.38;1773692;80;21333;-82
2021/11/23 07:25:49;;;;;;;14.07;10.78;;;;;;;0.66;79.40;97415.79;1797941;80;21410;-82
2021/11/23 07:28:15;;;;;;;14.58;10.53;;;;;;;0.66;79.74;97411.13;1798046;80;21387;-82
2021/11/23 07:30:41;;;;;;;18.35;11.57;;;;;;;0.63;79.23;97412.58;1798170;80;20953;-82
2021/11/23 07:33:07;;;;;;;19.07;13.48;;;;;;;0.60;79.66;97401.63;1797876;80;20993;-82
2021/11/23 07:35:32;;;;;;;18.87;12.35;;;;;;;0.60;79.58;97397.78;1798161;80;21352;-82
2021/11/23 07:37:59;;;;;;;14.25;10.58;;;;;;;0.59;79.27;97396.61;1798188;80;20945;-82
2021/11/23 07:40:25;;;;;;;10.88;8.98;;;;;;;0.55;79.14;97392.60;1798100;80;20976;-81
2021/11/23 07:42:50;;;;;;;12.55;9.03;;;;;;;0.51;79.02;97400.11;1798079;80;20996;-82
2021/11/23 07:45:16;;;;;;;13.75;11.55;;;;;;;0.49;78.77;97394.27;1798197;80;20961;-82
2021/11/23 07:47:42;;;;;;;16.50;11.83;;;;;;;0.46;78.89;97396.99;1798079;80;20941;-82
2021/11/23 07:50:09;;;;;;;16.60;13.22;;;;;;;0.44;79.17;97399.64;1798229;80;20909;-82
2021/11/23 07:52:35;;;;;;;13.00;9.90;;;;;;;0.42;79.03;97401.48;1798087;80;21399;-82
2021/11/23 07:55:02;;;;;;;15.40;11.80;;;;;;;0.44;78.88;97405.22;1797952;80;21000;-82
2021/11/23 07:57:28;;;;;;;16.20;11.40;;;;;;;0.46;79.02;97402.92;1798129;80;20984;-82
2021/11/23 07:59:54;;;;;;;15.72;12.65;;;;;;;0.45;78.91;97399.19;1798102;80;21000;-82
2021/11/23 08:02:20;;;;;;;47.00;30.75;;;;;;;0.44;79.02;97402.20;1781898;78;21036;-82
2021/11/23 08:04:46;;;;;;;27.67;18.00;;;;;;;0.43;79.14;97401.84;1792809;80;20974;-82
2021/11/23 08:07:11;;;;;;;39.03;19.32;;;;;;;0.43;79.27;97405.67;1798201;80;20979;-82
2021/11/23 08:09:37;;;;;;;27.65;16.65;;;;;;;0.42;79.09;97411.70;1798348;80;21400;-82
2021/11/23 08:12:04;;;;;;;22.77;13.75;;;;;;;0.37;78.82;97410.36;1798079;80;22136;-82
2021/11/23 08:14:30;;;;;;;17.02;11.60;;;;;;;0.32;78.79;97406.78;1798171;80;21052;-82
2021/11/23 08:16:57;;;;;;;14.73;10.85;;;;;;;0.32;79.05;97408.06;1797798;80;21076;-82
2021/11/23 08:19:23;;;;;;;14.13;9.98;;;;;;;0.39;79.45;97415.73;1798186;80;21314;-82
2021/11/23 08:21:49;;;;;;;15.93;11.38;;;;;;;0.46;79.48;97423.38;1797894;80;21051;-82
2021/11/23 08:24:16;;;;;;;16.37;10.88;;;;;;;0.52;79.38;97418.38;1797997;80;21072;-82
2021/11/23 08:26:42;;;;;;;11.85;8.90;;;;;;;0.54;79.32;97410.14;1798155;80;20992;-82
2021/11/23 08:29:08;;;;;;;13.88;10.00;;;;;;;0.63;79.21;97403.63;1798088;80;20996;-82
2021/11/23 08:31:35;;;;;;;13.05;9.40;;;;;;;0.72;79.48;97401.78;1798198;80;21028;-82
2021/11/23 08:34:04;;;;;;;10.95;8.75;;;;;;;0.81;79.60;97402.04;1798052;80;21020;-82
2021/11/23 08:37:06;;;;;;;7.28;6.28;;;;;;;0.88;79.26;97402.00;1798070;80;21068;-82
2021/11/23 08:39:32;;;;;;;19.48;11.10;;;;;;;0.92;78.67;97401.34;1798031;80;21363;-82
2021/11/23 08:41:58;;;;;;;12.50;6.62;;;;;;;0.96;78.52;97401.50;1798068;80;20950;-82
2021/11/23 08:44:24;;;;;;;9.93;5.05;;;;;;;0.96;78.19;97398.12;1798261;80;21395;-82
2021/11/23 08:46:50;;;;;;;6.50;4.12;;;;;;;0.96;77.89;97402.78;1772583;80;21041;-82
2021/11/23 08:49:16;;;;;;;5.37;4.42;;;;;;;0.96;77.45;97407.08;1798235;80;21402;-82
2021/11/23 08:51:42;;;;;;;6.35;3.92;;;;;;;0.96;77.06;97400.23;1797937;80;21086;-82
2021/11/23 08:54:08;;;;;;;6.72;5.15;;;;;;;0.98;76.94;97404.81;1798046;80;21047;-81
2021/11/23 08:56:37;;;;;;;6.60;5.70;;;;;;;1.05;77.14;97395.81;1797933;80;21304;-82
2021/11/23 08:59:08;;;;;;;7.42;4.95;;;;;;;1.09;77.12;97401.55;1797984;80;20953;-82
2021/11/23 09:01:29;;;;;;;6.75;4.65;;;;;;;1.13;77.07;97400.42;1789383;78;20978;-81
2021/11/23 09:03:55;;;;;;;5.75;3.98;;;;;;;1.19;77.05;97409.02;1782146;80;20996;-82
2021/11/23 09:06:24;;;;;;;9.53;6.35;;;;;;;1.27;76.57;97409.33;1798069;80;20977;-82
2021/11/23 09:08:57;;;;;;;8.63;5.47;;;;;;;1.32;76.41;97409.05;1798115;80;21040;-82
2021/11/23 09:11:23;;;;;;;9.33;5.17;;;;;;;1.34;75.79;97411.05;1798180;80;21041;-81
2021/11/23 09:13:50;;;;;;;5.35;4.40;;;;;;;1.37;75.55;97412.94;1798178;80;21012;-82
2021/11/23 09:16:16;;;;;;;7.33;4.53;;;;;;;1.40;75.35;97408.90;1798015;80;20930;-82
2021/11/23 09:18:42;;;;;;;8.63;5.10;;;;;;;1.43;75.55;97409.97;1797991;80;21017;-82
2021/11/23 09:21:08;;;;;;;8.30;4.78;;;;;;;1.47;75.25;97410.16;1773724;80;21415;-81
2021/11/23 09:23:34;;;;;;;7.90;5.10;;;;;;;1.50;75.07;97412.52;1798284;80;20948;-83
2021/11/23 09:26:00;;;;;;;5.65;3.30;;;;;;;1.54;75.02;97409.28;1797727;80;20980;-82
2021/11/23 09:28:26;;;;;;;4.75;3.70;;;;;;;1.56;74.79;97412.56;1798210;80;21060;-81
2021/11/23 09:30:51;;;;;;;6.90;4.10;;;;;;;1.58;74.48;97409.43;1798078;80;21032;-81
2021/11/23 09:33:17;;;;;;;3.65;3.20;;;;;;;1.61;74.86;97414.34;1798116;80;20973;-82
2021/11/23 09:35:43;;;;;;;4.78;3.30;;;;;;;1.66;74.30;97420.01;1798258;80;20996;-82
2021/11/23 09:38:09;;;;;;;4.47;3.10;;;;;;;1.67;74.05;97415.24;1798164;80;21380;-82
2021/11/23 09:40:35;;;;;;;4.10;2.50;;;;;;;1.73;74.18;97403.30;1798342;80;20945;-82
2021/11/23 09:43:03;;;;;;;5.10;2.80;;;;;;;1.76;73.36;97400.98;1798231;80;20997;-81
2021/11/23 09:45:30;;;;;;;5.17;3.80;;;;;;;1.74;73.44;97400.27;1798590;80;21367;-82
2021/11/23 09:47:57;;;;;;;4.12;3.12;;;;;;;1.75;72.76;97396.78;1798421;80;20948;-82
2021/11/23 09:50:23;;;;;;;3.83;2.90;;;;;;;1.78;73.13;97389.70;1798269;80;21021;-82
2021/11/23 09:52:49;;;;;;;4.55;3.27;;;;;;;1.85;73.61;97386.29;1798156;80;21051;-82
2021/11/23 09:55:15;;;;;;;4.42;2.85;;;;;;;1.93;73.24;97387.05;1798224;80;20980;-82
2021/11/23 09:57:41;;;;;;;4.45;2.90;;;;;;;1.93;73.11;97378.07;1798214;80;20957;-82
2021/11/23 10:00:35;;;;;;;5.78;3.40;;;;;;;2.00;72.72;97386.54;1798190;80;21340;-82
2021/11/23 10:03:29;;;;;;;3.30;2.95;;;;;;;2.05;72.58;97392.63;1798330;80;21014;-82
2021/11/23 10:06:14;;;;;;;3.30;2.98;;;;;;;2.10;72.36;97387.53;1798095;80;20953;-81
2021/11/23 10:08:42;;;;;;;3.62;3.00;;;;;;;2.13;71.83;97386.53;1798147;80;21551;-82
2021/11/23 10:11:10;;;;;;;4.05;3.02;;;;;;;2.19;71.97;97390.41;1798343;80;20988;-82
2021/11/23 10:13:46;;;;;;;10.98;5.03;;;;;;;2.24;72.35;97385.78;1798058;80;20985;-82
2021/11/23 10:16:12;;;;;;;8.20;4.33;;;;;;;2.31;71.66;97381.88;1798195;80;21044;-82
2021/11/23 10:18:38;;;;;;;5.55;3.15;;;;;;;2.32;71.68;97374.08;1795700;80;21001;-82
2021/11/23 10:21:07;;;;;;;4.35;3.12;;;;;;;2.35;70.98;97367.91;1795007;80;21532;-82
2021/11/23 10:23:41;;;;;;;5.55;3.30;;;;;;;2.38;71.30;97357.44;1795007;80;20956;-82
2021/11/23 10:26:19;;;;;;;5.28;3.27;;;;;;;2.46;71.34;97351.78;1795174;80;20941;-82
2021/11/23 10:28:57;;;;;;;7.50;6.17;;;;;;;2.51;70.07;97349.70;1761779;81;20955;-82
2021/11/23 10:31:34;;;;;;;3.87;3.50;;;;;;;2.56;70.22;97348.91;1751592;80;21325;-82
2021/11/23 10:34:04;;;;;;;4.42;3.65;;;;;;;2.61;69.45;97342.54;1745031;81;20990;-82
2021/11/23 10:36:32;;;;;;;5.42;2.95;;;;;;;2.67;69.67;97339.99;1762410;81;21054;-82
2021/11/23 10:39:10;;;;;;;5.10;3.37;;;;;;;2.69;69.62;97346.65;1762114;81;21021;-82
2021/11/23 10:41:36;;;;;;;4.72;3.35;;;;;;;2.71;68.69;97339.66;1762364;81;21291;-81
2021/11/23 10:44:03;;;;;;;6.33;3.80;;;;;;;2.74;67.62;97344.21;1762134;81;21404;-82
2021/11/23 10:46:32;;;;;;;6.40;3.95;;;;;;;2.73;68.37;97340.83;1734668;81;21038;-82
2021/11/23 10:49:01;;;;;;;6.08;3.42;;;;;;;2.78;68.52;97345.66;1762216;81;20982;-81
2021/11/23 10:51:39;;;;;;;4.62;2.50;;;;;;;2.82;68.12;97351.73;1762044;81;21038;-82
2021/11/23 10:54:14;;;;;;;4.53;2.52;;;;;;;2.86;66.73;97354.42;1762227;81;21456;-82
2021/11/23 10:57:06;;;;;;;3.90;2.98;;;;;;;2.86;66.73;97351.86;1761672;81;21345;-82
2021/11/23 10:59:38;;;;;;;4.53;2.50;;;;;;;2.91;67.62;97361.33;1762545;81;21344;-82
2021/11/23 11:02:04;;;;;;;5.28;3.20;;;;;;;2.95;66.86;97367.90;1762515;81;20939;-81
2021/11/23 11:04:32;;;;;;;7.83;3.45;;;;;;;2.97;67.33;97368.61;1762379;81;20986;-82
2021/11/23 11:06:58;;;;;;;4.15;2.72;;;;;;;3.03;67.36;97362.66;1762302;81;21018;-82
2021/11/23 11:09:24;;;;;;;3.58;2.55;;;;;;;3.08;67.15;97363.14;1762365;81;21409;-82
2021/11/23 11:11:49;;;;;;;3.47;2.70;;;;;;;3.11;67.20;97362.94;1762233;81;21041;-82
2021/11/23 11:14:15;;;;;;;4.08;2.90;;;;;;;3.13;67.16;97363.18;1762157;81;21057;-81
2021/11/23 11:16:41;;;;;;;3.02;2.70;;;;;;;3.15;67.42;97360.50;1762195;81;20959;-82
2021/11/23 11:19:11;;;;;;;4.83;3.10;;;;;;;3.18;67.30;97360.27;1762092;81;20959;-82
2021/11/23 11:21:55;;;;;;;4.85;3.20;;;;;;;3.23;67.18;97355.61;1762135;81;21096;-82
2021/11/23 11:27:15;;;;;;;5.58;3.02;;;;;;;3.23;66.41;97368.45;1760514;81;20991;-82
2021/11/23 11:29:42;;;;;;;5.90;4.17;;;;;;;3.21;65.95;97364.71;1762168;81;21012;-82
2021/11/23 11:32:36;;;;;;;7.12;4.20;;;;;;;3.23;65.64;97351.75;1746312;80;20974;-82
2021/11/23 11:35:23;;;;;;;5.95;3.80;;;;;;;3.26;66.19;97356.69;1757759;81;21098;-82